sensor_id;sensor_type;location;lat;lon;timestamp;P1;durP1;ratioP1;P2;durP2;ratioP2
72785;SDS011;60902;53.876;10.674;2022-12-18T00:00:10;16.15;;;10.80;;
72785;SDS011;60902;53.876;10.674;2022-12-18T00:00:21;15.38;;;10.93;;
72785;SDS011;60902;53.876;10.674;2022-12-18T00:00:32;14.75;;;11.43;;
72785;SDS011;60902;53.876;10.674;2022-12-18T00:00:43;15.23;;;11.60;;
72785;SDS011;60902;53.876;10.674;2022-12-18T00:00:56;15.63;;;10.95;;
72785;SDS011;60902;53.876;10.674;2022-12-18T00:01:14;15.68;;;10.82;;
72785;SDS011;60902;53.876;10.674;2022-12-18T00:01:27;16.27;;;11.05;;
72785;SDS011;60902;53.876;10.674;2022-12-18T00:01:41;16.42;;;11.32;;
72785;SDS011;60902;53.876;10.674;2022-12-18T00:01:56;15.98;;;11.50;;
72785;SDS011;60902;53.876;10.674;2022-12-18T00:02:08;15.43;;;11.32;;
72785;SDS011;60902;53.876;10.674;2022-12-18T00:02:21;14.70;;;10.70;;
72785;SDS011;60902;53.876;10.674;2022-12-18T00:02:32;15.80;;;10.88;;
72785;SDS011;60902;53.876;10.674;2022-12-18T00:02:43;15.77;;;11.05;;
72785;SDS011;60902;53.876;10.674;2022-12-18T00:02:55;16.73;;;11.73;;
72785;SDS011;60902;53.876;10.674;2022-12-18T00:03:06;16.63;;;11.93;;
72785;SDS011;60902;53.876;10.674;2022-12-18T00:03:17;16.65;;;11.88;;
72785;SDS011;60902;53.876;10.674;2022-12-18T00:03:28;15.00;;;11.18;;
72785;SDS011;60902;53.876;10.674;2022-12-18T00:03:38;15.50;;;11.00;;
72785;SDS011;60902;53.876;10.674;2022-12-18T00:03:51;15.63;;;11.07;;
72785;SDS011;60902;53.876;10.674;2022-12-18T00:04:02;16.20;;;11.35;;
72785;SDS011;60902;53.876;10.674;2022-12-18T00:04:15;16.50;;;11.38;;
72785;SDS011;60902;53.876;10.674;2022-12-18T00:04:31;16.95;;;11.88;;
72785;SDS011;60902;53.876;10.674;2022-12-18T00:04:42;16.45;;;12.00;;
72785;SDS011;60902;53.876;10.674;2022-12-18T00:04:53;15.27;;;11.48;;
72785;SDS011;60902;53.876;10.674;2022-12-18T00:05:04;15.73;;;10.75;;
72785;SDS011;60902;53.876;10.674;2022-12-18T00:05:16;15.45;;;10.68;;
72785;SDS011;60902;53.876;10.674;2022-12-18T00:05:26;15.80;;;10.70;;
72785;SDS011;60902;53.876;10.674;2022-12-18T00:05:37;16.08;;;10.75;;
72785;SDS011;60902;53.876;10.674;2022-12-18T00:05:56;16.30;;;11.45;;
72785;SDS011;60902;53.876;10.674;2022-12-18T00:06:07;16.30;;;11.80;;
72785;SDS011;60902;53.876;10.674;2022-12-18T00:06:19;17.00;;;11.63;;
72785;SDS011;60902;53.876;10.674;2022-12-18T00:06:30;16.27;;;11.13;;
72785;SDS011;60902;53.876;10.674;2022-12-18T00:06:42;15.45;;;10.93;;
72785;SDS011;60902;53.876;10.674;2022-12-18T00:06:53;15.52;;;10.90;;
72785;SDS011;60902;53.876;10.674;2022-12-18T00:07:04;16.40;;;11.10;;
72785;SDS011;60902;53.876;10.674;2022-12-18T00:07:15;16.47;;;11.43;;
72785;SDS011;60902;53.876;10.674;2022-12-18T00:07:26;14.88;;;11.10;;
72785;SDS011;60902;53.876;10.674;2022-12-18T00:07:37;15.15;;;10.90;;
72785;SDS011;60902;53.876;10.674;2022-12-18T00:07:48;15.80;;;10.75;;
72785;SDS011;60902;53.876;10.674;2022-12-18T00:07:59;16.40;;;11.33;;
72785;SDS011;60902;53.876;10.674;2022-12-18T00:08:10;15.90;;;12.13;;
72785;SDS011;60902;53.876;10.674;2022-12-18T00:08:20;16.15;;;12.25;;
72785;SDS011;60902;53.876;10.674;2022-12-18T00:08:31;16.55;;;12.20;;
72785;SDS011;60902;53.876;10.674;2022-12-18T00:08:42;16.27;;;11.63;;
72785;SDS011;60902;53.876;10.674;2022-12-18T00:08:55;15.77;;;11.10;;
72785;SDS011;60902;53.876;10.674;2022-12-18T00:09:08;15.68;;;11.13;;
72785;SDS011;60902;53.876;10.674;2022-12-18T00:09:19;15.90;;;11.20;;
72785;SDS011;60902;53.876;10.674;2022-12-18T00:09:30;15.77;;;10.95;;
72785;SDS011;60902;53.876;10.674;2022-12-18T00:09:41;16.05;;;10.82;;
72785;SDS011;60902;53.876;10.674;2022-12-18T00:09:52;16.38;;;11.15;;
72785;SDS011;60902;53.876;10.674;2022-12-18T00:10:04;16.92;;;11.38;;
72785;SDS011;60902;53.876;10.674;2022-12-18T00:10:16;16.17;;;11.38;;
72785;SDS011;60902;53.876;10.674;2022-12-18T00:10:27;16.08;;;11.02;;
72785;SDS011;60902;53.876;10.674;2022-12-18T00:10:38;16.20;;;10.95;;
72785;SDS011;60902;53.876;10.674;2022-12-18T00:10:49;15.63;;;10.90;;
72785;SDS011;60902;53.876;10.674;2022-12-18T00:11:03;15.20;;;11.05;;
72785;SDS011;60902;53.876;10.674;2022-12-18T00:11:16;15.80;;;11.90;;
72785;SDS011;60902;53.876;10.674;2022-12-18T00:11:28;16.58;;;12.18;;
72785;SDS011;60902;53.876;10.674;2022-12-18T00:11:40;16.23;;;11.25;;
72785;SDS011;60902;53.876;10.674;2022-12-18T00:11:50;16.93;;;11.97;;
72785;SDS011;60902;53.876;10.674;2022-12-18T00:12:03;15.98;;;11.63;;
72785;SDS011;60902;53.876;10.674;2022-12-18T00:12:14;16.52;;;12.25;;
72785;SDS011;60902;53.876;10.674;2022-12-18T00:12:26;16.17;;;11.65;;
72785;SDS011;60902;53.876;10.674;2022-12-18T00:12:37;16.60;;;11.52;;
72785;SDS011;60902;53.876;10.674;2022-12-18T00:12:48;15.48;;;11.15;;
72785;SDS011;60902;53.876;10.674;2022-12-18T00:12:59;16.10;;;11.57;;
72785;SDS011;60902;53.876;10.674;2022-12-18T00:13:10;15.98;;;11.40;;
72785;SDS011;60902;53.876;10.674;2022-12-18T00:13:22;15.57;;;11.40;;
72785;SDS011;60902;53.876;10.674;2022-12-18T00:13:33;14.98;;;11.20;;
72785;SDS011;60902;53.876;10.674;2022-12-18T00:13:44;14.93;;;11.03;;
72785;SDS011;60902;53.876;10.674;2022-12-18T00:13:58;15.00;;;10.85;;
72785;SDS011;60902;53.876;10.674;2022-12-18T00:14:12;15.82;;;11.02;;
72785;SDS011;60902;53.876;10.674;2022-12-18T00:14:25;15.95;;;11.55;;
72785;SDS011;60902;53.876;10.674;2022-12-18T00:14:36;15.52;;;11.38;;
72785;SDS011;60902;53.876;10.674;2022-12-18T00:14:47;16.23;;;11.67;;
72785;SDS011;60902;53.876;10.674;2022-12-18T00:14:59;16.58;;;11.88;;
72785;SDS011;60902;53.876;10.674;2022-12-18T00:15:10;16.25;;;11.98;;
72785;SDS011;60902;53.876;10.674;2022-12-18T00:15:20;16.10;;;11.82;;
72785;SDS011;60902;53.876;10.674;2022-12-18T00:15:32;15.95;;;11.85;;
72785;SDS011;60902;53.876;10.674;2022-12-18T00:15:44;15.27;;;11.73;;
72785;SDS011;60902;53.876;10.674;2022-12-18T00:15:55;15.50;;;11.50;;
72785;SDS011;60902;53.876;10.674;2022-12-18T00:16:07;16.13;;;11.63;;
72785;SDS011;60902;53.876;10.674;2022-12-18T00:16:22;16.73;;;11.88;;
72785;SDS011;60902;53.876;10.674;2022-12-18T00:16:34;15.95;;;12.18;;
72785;SDS011;60902;53.876;10.674;2022-12-18T00:16:46;15.73;;;11.43;;
72785;SDS011;60902;53.876;10.674;2022-12-18T00:16:57;15.83;;;10.90;;
72785;SDS011;60902;53.876;10.674;2022-12-18T00:17:15;16.00;;;10.90;;
72785;SDS011;60902;53.876;10.674;2022-12-18T00:17:30;15.05;;;11.25;;
72785;SDS011;60902;53.876;10.674;2022-12-18T00:18:34;15.70;;;11.48;;
72785;SDS011;60902;53.876;10.674;2022-12-18T00:18:52;15.93;;;11.27;;
72785;SDS011;60902;53.876;10.674;2022-12-18T00:19:04;15.45;;;11.65;;
72785;SDS011;60902;53.876;10.674;2022-12-18T00:19:39;17.10;;;10.95;;
72785;SDS011;60902;53.876;10.674;2022-12-18T00:19:51;16.00;;;11.23;;
72785;SDS011;60902;53.876;10.674;2022-12-18T00:20:05;14.65;;;10.80;;
72785;SDS011;60902;53.876;10.674;2022-12-18T00:20:16;14.50;;;10.63;;
72785;SDS011;60902;53.876;10.674;2022-12-18T00:20:35;14.85;;;11.38;;
72785;SDS011;60902;53.876;10.674;2022-12-18T00:20:52;15.70;;;11.82;;
72785;SDS011;60902;53.876;10.674;2022-12-18T00:21:09;16.08;;;11.68;;
72785;SDS011;60902;53.876;10.674;2022-12-18T00:21:23;14.73;;;11.30;;
72785;SDS011;60902;53.876;10.674;2022-12-18T00:21:35;15.15;;;11.38;;
72785;SDS011;60902;53.876;10.674;2022-12-18T00:21:46;15.13;;;11.10;;
72785;SDS011;60902;53.876;10.674;2022-12-18T00:21:56;15.38;;;11.13;;
72785;SDS011;60902;53.876;10.674;2022-12-18T00:22:08;14.75;;;10.48;;
72785;SDS011;60902;53.876;10.674;2022-12-18T00:22:19;14.73;;;10.52;;
72785;SDS011;60902;53.876;10.674;2022-12-18T00:22:29;15.85;;;11.05;;
72785;SDS011;60902;53.876;10.674;2022-12-18T00:22:41;16.02;;;11.23;;
72785;SDS011;60902;53.876;10.674;2022-12-18T00:22:52;15.85;;;11.32;;
72785;SDS011;60902;53.876;10.674;2022-12-18T00:23:03;14.70;;;11.30;;
72785;SDS011;60902;53.876;10.674;2022-12-18T00:23:14;15.80;;;11.63;;
72785;SDS011;60902;53.876;10.674;2022-12-18T00:23:25;16.30;;;11.33;;
72785;SDS011;60902;53.876;10.674;2022-12-18T00:23:36;16.98;;;11.73;;
72785;SDS011;60902;53.876;10.674;2022-12-18T00:23:48;17.15;;;11.75;;
72785;SDS011;60902;53.876;10.674;2022-12-18T00:24:03;16.52;;;11.73;;
72785;SDS011;60902;53.876;10.674;2022-12-18T00:24:19;16.10;;;11.00;;
72785;SDS011;60902;53.876;10.674;2022-12-18T00:24:31;15.25;;;10.82;;
72785;SDS011;60902;53.876;10.674;2022-12-18T00:24:42;15.05;;;11.48;;
72785;SDS011;60902;53.876;10.674;2022-12-18T00:24:55;14.85;;;11.50;;
72785;SDS011;60902;53.876;10.674;2022-12-18T00:25:06;14.80;;;11.33;;
72785;SDS011;60902;53.876;10.674;2022-12-18T00:25:17;15.40;;;11.07;;
72785;SDS011;60902;53.876;10.674;2022-12-18T00:25:28;16.02;;;11.25;;
72785;SDS011;60902;53.876;10.674;2022-12-18T00:25:39;16.33;;;10.93;;
72785;SDS011;60902;53.876;10.674;2022-12-18T00:25:50;16.45;;;11.38;;
72785;SDS011;60902;53.876;10.674;2022-12-18T00:26:04;16.90;;;11.57;;
72785;SDS011;60902;53.876;10.674;2022-12-18T00:26:16;16.20;;;11.32;;
72785;SDS011;60902;53.876;10.674;2022-12-18T00:26:30;14.85;;;10.57;;
72785;SDS011;60902;53.876;10.674;2022-12-18T00:26:43;15.43;;;10.80;;
72785;SDS011;60902;53.876;10.674;2022-12-18T00:26:54;16.13;;;11.20;;
72785;SDS011;60902;53.876;10.674;2022-12-18T00:27:05;16.52;;;11.35;;
72785;SDS011;60902;53.876;10.674;2022-12-18T00:27:16;16.40;;;11.18;;
72785;SDS011;60902;53.876;10.674;2022-12-18T00:27:27;15.43;;;11.20;;
72785;SDS011;60902;53.876;10.674;2022-12-18T00:27:38;15.90;;;11.20;;
72785;SDS011;60902;53.876;10.674;2022-12-18T00:27:50;16.27;;;11.35;;
72785;SDS011;60902;53.876;10.674;2022-12-18T00:28:03;16.58;;;11.55;;
72785;SDS011;60902;53.876;10.674;2022-12-18T00:28:14;16.00;;;11.55;;
72785;SDS011;60902;53.876;10.674;2022-12-18T00:28:25;15.18;;;11.10;;
72785;SDS011;60902;53.876;10.674;2022-12-18T00:28:39;14.68;;;10.70;;
72785;SDS011;60902;53.876;10.674;2022-12-18T00:28:55;15.00;;;11.05;;
72785;SDS011;60902;53.876;10.674;2022-12-18T00:29:10;16.02;;;11.90;;
72785;SDS011;60902;53.876;10.674;2022-12-18T00:29:23;15.88;;;11.68;;
72785;SDS011;60902;53.876;10.674;2022-12-18T00:29:35;15.70;;;11.63;;
72785;SDS011;60902;53.876;10.674;2022-12-18T00:29:47;15.35;;;11.98;;
72785;SDS011;60902;53.876;10.674;2022-12-18T00:29:58;16.05;;;11.73;;
72785;SDS011;60902;53.876;10.674;2022-12-18T00:30:12;16.00;;;11.23;;
72785;SDS011;60902;53.876;10.674;2022-12-18T00:30:23;16.35;;;11.45;;
72785;SDS011;60902;53.876;10.674;2022-12-18T00:30:50;16.42;;;11.10;;
72785;SDS011;60902;53.876;10.674;2022-12-18T00:31:27;14.93;;;11.15;;
72785;SDS011;60902;53.876;10.674;2022-12-18T00:31:41;16.42;;;11.65;;
72785;SDS011;60902;53.876;10.674;2022-12-18T00:31:56;15.98;;;11.57;;
72785;SDS011;60902;53.876;10.674;2022-12-18T00:32:08;16.02;;;12.00;;
72785;SDS011;60902;53.876;10.674;2022-12-18T00:32:19;16.08;;;12.40;;
72785;SDS011;60902;53.876;10.674;2022-12-18T00:32:36;15.48;;;11.55;;
72785;SDS011;60902;53.876;10.674;2022-12-18T00:32:47;14.73;;;11.13;;
72785;SDS011;60902;53.876;10.674;2022-12-18T00:33:00;15.05;;;10.93;;
72785;SDS011;60902;53.876;10.674;2022-12-18T00:33:11;15.38;;;11.10;;
72785;SDS011;60902;53.876;10.674;2022-12-18T00:33:22;15.68;;;11.52;;
72785;SDS011;60902;53.876;10.674;2022-12-18T00:33:34;15.93;;;11.85;;
72785;SDS011;60902;53.876;10.674;2022-12-18T00:33:47;15.77;;;11.95;;
72785;SDS011;60902;53.876;10.674;2022-12-18T00:33:59;16.25;;;12.00;;
72785;SDS011;60902;53.876;10.674;2022-12-18T00:34:11;16.48;;;11.75;;
72785;SDS011;60902;53.876;10.674;2022-12-18T00:34:22;16.27;;;11.23;;
72785;SDS011;60902;53.876;10.674;2022-12-18T00:34:33;15.98;;;11.02;;
72785;SDS011;60902;53.876;10.674;2022-12-18T00:34:45;15.32;;;11.00;;
72785;SDS011;60902;53.876;10.674;2022-12-18T00:34:56;14.68;;;11.15;;
72785;SDS011;60902;53.876;10.674;2022-12-18T00:35:07;14.77;;;11.20;;
72785;SDS011;60902;53.876;10.674;2022-12-18T00:35:18;15.27;;;10.90;;
72785;SDS011;60902;53.876;10.674;2022-12-18T00:35:29;15.55;;;10.88;;
72785;SDS011;60902;53.876;10.674;2022-12-18T00:35:41;16.02;;;11.20;;
72785;SDS011;60902;53.876;10.674;2022-12-18T00:35:52;16.63;;;11.60;;
72785;SDS011;60902;53.876;10.674;2022-12-18T00:36:03;16.52;;;11.73;;
72785;SDS011;60902;53.876;10.674;2022-12-18T00:36:16;15.70;;;11.93;;
72785;SDS011;60902;53.876;10.674;2022-12-18T00:36:29;15.55;;;11.88;;
72785;SDS011;60902;53.876;10.674;2022-12-18T00:36:42;17.15;;;11.95;;
72785;SDS011;60902;53.876;10.674;2022-12-18T00:36:53;17.25;;;11.75;;
72785;SDS011;60902;53.876;10.674;2022-12-18T00:37:04;17.10;;;11.37;;
72785;SDS011;60902;53.876;10.674;2022-12-18T00:37:14;15.77;;;11.30;;
72785;SDS011;60902;53.876;10.674;2022-12-18T00:37:25;16.13;;;11.75;;
72785;SDS011;60902;53.876;10.674;2022-12-18T00:37:36;15.90;;;11.75;;
72785;SDS011;60902;53.876;10.674;2022-12-18T00:37:47;15.90;;;11.45;;
72785;SDS011;60902;53.876;10.674;2022-12-18T00:37:58;15.50;;;10.93;;
72785;SDS011;60902;53.876;10.674;2022-12-18T00:38:09;16.13;;;11.32;;
72785;SDS011;60902;53.876;10.674;2022-12-18T00:38:20;15.63;;;11.43;;
72785;SDS011;60902;53.876;10.674;2022-12-18T00:38:31;15.85;;;11.20;;
72785;SDS011;60902;53.876;10.674;2022-12-18T00:38:42;16.67;;;11.43;;
72785;SDS011;60902;53.876;10.674;2022-12-18T00:38:54;16.27;;;11.30;;
72785;SDS011;60902;53.876;10.674;2022-12-18T00:39:06;15.25;;;11.15;;
72785;SDS011;60902;53.876;10.674;2022-12-18T00:39:17;15.88;;;11.88;;
72785;SDS011;60902;53.876;10.674;2022-12-18T00:39:28;15.60;;;11.90;;
72785;SDS011;60902;53.876;10.674;2022-12-18T00:39:39;15.63;;;11.63;;
72785;SDS011;60902;53.876;10.674;2022-12-18T00:39:49;16.02;;;11.57;;
72785;SDS011;60902;53.876;10.674;2022-12-18T00:40:00;16.77;;;12.10;;
72785;SDS011;60902;53.876;10.674;2022-12-18T00:40:11;16.33;;;11.85;;
72785;SDS011;60902;53.876;10.674;2022-12-18T00:40:23;16.00;;;11.52;;
72785;SDS011;60902;53.876;10.674;2022-12-18T00:40:34;16.30;;;11.30;;
72785;SDS011;60902;53.876;10.674;2022-12-18T00:40:45;15.88;;;11.30;;
72785;SDS011;60902;53.876;10.674;2022-12-18T00:40:55;15.45;;;11.20;;
72785;SDS011;60902;53.876;10.674;2022-12-18T00:41:07;15.23;;;11.20;;
72785;SDS011;60902;53.876;10.674;2022-12-18T00:41:18;16.08;;;11.27;;
72785;SDS011;60902;53.876;10.674;2022-12-18T00:41:44;16.55;;;11.73;;
72785;SDS011;60902;53.876;10.674;2022-12-18T00:42:13;15.60;;;11.55;;
72785;SDS011;60902;53.876;10.674;2022-12-18T00:42:42;15.88;;;11.27;;
72785;SDS011;60902;53.876;10.674;2022-12-18T00:43:05;15.80;;;11.65;;
72785;SDS011;60902;53.876;10.674;2022-12-18T00:43:16;15.45;;;11.43;;
72785;SDS011;60902;53.876;10.674;2022-12-18T00:43:27;16.13;;;12.07;;
72785;SDS011;60902;53.876;10.674;2022-12-18T00:43:38;15.95;;;11.85;;
72785;SDS011;60902;53.876;10.674;2022-12-18T00:43:49;16.55;;;12.32;;
72785;SDS011;60902;53.876;10.674;2022-12-18T00:44:00;16.55;;;11.77;;
72785;SDS011;60902;53.876;10.674;2022-12-18T00:44:12;16.60;;;12.00;;
72785;SDS011;60902;53.876;10.674;2022-12-18T00:44:26;16.00;;;11.60;;
72785;SDS011;60902;53.876;10.674;2022-12-18T00:44:37;16.43;;;11.70;;
72785;SDS011;60902;53.876;10.674;2022-12-18T00:44:47;15.98;;;11.75;;
72785;SDS011;60902;53.876;10.674;2022-12-18T00:44:58;16.17;;;11.98;;
72785;SDS011;60902;53.876;10.674;2022-12-18T00:45:09;15.95;;;11.75;;
72785;SDS011;60902;53.876;10.674;2022-12-18T00:45:20;16.23;;;11.57;;
72785;SDS011;60902;53.876;10.674;2022-12-18T00:45:31;16.48;;;11.85;;
72785;SDS011;60902;53.876;10.674;2022-12-18T00:45:42;16.13;;;11.80;;
72785;SDS011;60902;53.876;10.674;2022-12-18T00:45:53;15.15;;;11.35;;
72785;SDS011;60902;53.876;10.674;2022-12-18T00:46:05;15.70;;;11.15;;
72785;SDS011;60902;53.876;10.674;2022-12-18T00:46:16;16.10;;;11.27;;
72785;SDS011;60902;53.876;10.674;2022-12-18T00:46:27;16.08;;;11.75;;
72785;SDS011;60902;53.876;10.674;2022-12-18T00:46:38;15.05;;;11.50;;
72785;SDS011;60902;53.876;10.674;2022-12-18T00:46:49;15.30;;;11.27;;
72785;SDS011;60902;53.876;10.674;2022-12-18T00:47:00;15.45;;;11.18;;
72785;SDS011;60902;53.876;10.674;2022-12-18T00:47:11;16.60;;;11.38;;
72785;SDS011;60902;53.876;10.674;2022-12-18T00:47:22;16.90;;;11.35;;
72785;SDS011;60902;53.876;10.674;2022-12-18T00:47:33;16.73;;;11.52;;
72785;SDS011;60902;53.876;10.674;2022-12-18T00:47:44;16.27;;;11.90;;
72785;SDS011;60902;53.876;10.674;2022-12-18T00:47:56;15.50;;;11.63;;
72785;SDS011;60902;53.876;10.674;2022-12-18T00:48:07;15.35;;;11.40;;
72785;SDS011;60902;53.876;10.674;2022-12-18T00:48:18;15.45;;;11.10;;
72785;SDS011;60902;53.876;10.674;2022-12-18T00:48:29;15.50;;;11.02;;
72785;SDS011;60902;53.876;10.674;2022-12-18T00:48:40;15.38;;;11.13;;
72785;SDS011;60902;53.876;10.674;2022-12-18T00:48:51;15.10;;;11.20;;
72785;SDS011;60902;53.876;10.674;2022-12-18T00:49:03;14.90;;;11.17;;
72785;SDS011;60902;53.876;10.674;2022-12-18T00:49:14;14.88;;;11.43;;
72785;SDS011;60902;53.876;10.674;2022-12-18T00:49:26;15.25;;;11.60;;
72785;SDS011;60902;53.876;10.674;2022-12-18T00:49:37;15.52;;;11.73;;
72785;SDS011;60902;53.876;10.674;2022-12-18T00:49:48;15.60;;;11.88;;
72785;SDS011;60902;53.876;10.674;2022-12-18T00:49:59;15.80;;;11.90;;
72785;SDS011;60902;53.876;10.674;2022-12-18T00:50:10;15.70;;;11.47;;
72785;SDS011;60902;53.876;10.674;2022-12-18T00:50:21;15.88;;;11.40;;
72785;SDS011;60902;53.876;10.674;2022-12-18T00:50:32;15.57;;;11.52;;
72785;SDS011;60902;53.876;10.674;2022-12-18T00:50:43;15.40;;;11.35;;
72785;SDS011;60902;53.876;10.674;2022-12-18T00:50:55;15.43;;;11.40;;
72785;SDS011;60902;53.876;10.674;2022-12-18T00:51:06;15.73;;;11.48;;
72785;SDS011;60902;53.876;10.674;2022-12-18T00:51:18;16.30;;;11.20;;
72785;SDS011;60902;53.876;10.674;2022-12-18T00:51:29;17.38;;;11.40;;
72785;SDS011;60902;53.876;10.674;2022-12-18T00:51:40;17.38;;;11.18;;
72785;SDS011;60902;53.876;10.674;2022-12-18T00:51:51;17.20;;;11.82;;
72785;SDS011;60902;53.876;10.674;2022-12-18T00:52:02;16.17;;;11.90;;
72785;SDS011;60902;53.876;10.674;2022-12-18T00:52:14;15.95;;;12.00;;
72785;SDS011;60902;53.876;10.674;2022-12-18T00:52:25;16.77;;;11.73;;
72785;SDS011;60902;53.876;10.674;2022-12-18T00:52:36;16.38;;;11.85;;
72785;SDS011;60902;53.876;10.674;2022-12-18T00:52:46;17.42;;;11.63;;
72785;SDS011;60902;53.876;10.674;2022-12-18T00:52:57;16.92;;;11.63;;
72785;SDS011;60902;53.876;10.674;2022-12-18T00:53:08;17.37;;;11.73;;
72785;SDS011;60902;53.876;10.674;2022-12-18T00:53:19;16.58;;;12.00;;
72785;SDS011;60902;53.876;10.674;2022-12-18T00:53:30;17.40;;;12.00;;
72785;SDS011;60902;53.876;10.674;2022-12-18T00:53:42;16.42;;;11.63;;
72785;SDS011;60902;53.876;10.674;2022-12-18T00:53:53;15.73;;;11.38;;
72785;SDS011;60902;53.876;10.674;2022-12-18T00:54:04;16.02;;;11.35;;
72785;SDS011;60902;53.876;10.674;2022-12-18T00:54:14;16.90;;;11.43;;
72785;SDS011;60902;53.876;10.674;2022-12-18T00:54:25;16.65;;;11.55;;
72785;SDS011;60902;53.876;10.674;2022-12-18T00:54:36;16.38;;;11.75;;
72785;SDS011;60902;53.876;10.674;2022-12-18T00:54:47;15.30;;;11.87;;
72785;SDS011;60902;53.876;10.674;2022-12-18T00:54:58;15.38;;;11.60;;
72785;SDS011;60902;53.876;10.674;2022-12-18T00:55:09;15.25;;;11.32;;
72785;SDS011;60902;53.876;10.674;2022-12-18T00:55:20;16.25;;;11.57;;
72785;SDS011;60902;53.876;10.674;2022-12-18T00:55:32;16.05;;;11.32;;
72785;SDS011;60902;53.876;10.674;2022-12-18T00:55:43;16.15;;;11.38;;
72785;SDS011;60902;53.876;10.674;2022-12-18T00:55:55;16.27;;;11.35;;
72785;SDS011;60902;53.876;10.674;2022-12-18T00:56:06;16.27;;;11.13;;
72785;SDS011;60902;53.876;10.674;2022-12-18T00:56:16;15.38;;;10.75;;
72785;SDS011;60902;53.876;10.674;2022-12-18T00:56:27;15.70;;;10.93;;
72785;SDS011;60902;53.876;10.674;2022-12-18T00:56:38;15.90;;;11.23;;
72785;SDS011;60902;53.876;10.674;2022-12-18T00:56:49;16.23;;;11.52;;
72785;SDS011;60902;53.876;10.674;2022-12-18T00:57:01;17.38;;;11.98;;
72785;SDS011;60902;53.876;10.674;2022-12-18T00:57:12;17.50;;;11.68;;
72785;SDS011;60902;53.876;10.674;2022-12-18T00:57:23;16.38;;;11.38;;
72785;SDS011;60902;53.876;10.674;2022-12-18T00:57:34;16.17;;;11.35;;
72785;SDS011;60902;53.876;10.674;2022-12-18T00:57:45;15.63;;;11.47;;
72785;SDS011;60902;53.876;10.674;2022-12-18T00:57:56;15.50;;;11.50;;
72785;SDS011;60902;53.876;10.674;2022-12-18T00:58:06;16.30;;;11.68;;
72785;SDS011;60902;53.876;10.674;2022-12-18T00:58:18;16.60;;;11.85;;
72785;SDS011;60902;53.876;10.674;2022-12-18T00:58:29;15.77;;;11.95;;
72785;SDS011;60902;53.876;10.674;2022-12-18T00:58:40;15.55;;;12.20;;
72785;SDS011;60902;53.876;10.674;2022-12-18T00:58:51;15.68;;;12.10;;
72785;SDS011;60902;53.876;10.674;2022-12-18T00:59:02;16.20;;;12.13;;
72785;SDS011;60902;53.876;10.674;2022-12-18T00:59:13;16.48;;;12.02;;
72785;SDS011;60902;53.876;10.674;2022-12-18T00:59:24;16.27;;;11.93;;
72785;SDS011;60902;53.876;10.674;2022-12-18T00:59:34;15.23;;;11.05;;
72785;SDS011;60902;53.876;10.674;2022-12-18T00:59:45;15.30;;;10.82;;
72785;SDS011;60902;53.876;10.674;2022-12-18T00:59:57;15.57;;;11.13;;
72785;SDS011;60902;53.876;10.674;2022-12-18T01:00:09;15.95;;;11.45;;
72785;SDS011;60902;53.876;10.674;2022-12-18T01:00:22;16.05;;;11.45;;
72785;SDS011;60902;53.876;10.674;2022-12-18T01:00:33;15.82;;;11.55;;
72785;SDS011;60902;53.876;10.674;2022-12-18T01:00:44;14.63;;;11.15;;
72785;SDS011;60902;53.876;10.674;2022-12-18T01:00:55;14.20;;;10.93;;
72785;SDS011;60902;53.876;10.674;2022-12-18T01:01:06;14.50;;;11.43;;
72785;SDS011;60902;53.876;10.674;2022-12-18T01:01:17;14.65;;;11.57;;
72785;SDS011;60902;53.876;10.674;2022-12-18T01:01:28;15.82;;;12.00;;
72785;SDS011;60902;53.876;10.674;2022-12-18T01:01:40;16.58;;;11.88;;
72785;SDS011;60902;53.876;10.674;2022-12-18T01:01:50;16.63;;;11.93;;
72785;SDS011;60902;53.876;10.674;2022-12-18T01:02:01;15.95;;;11.75;;
72785;SDS011;60902;53.876;10.674;2022-12-18T01:02:12;15.75;;;11.85;;
72785;SDS011;60902;53.876;10.674;2022-12-18T01:02:23;16.05;;;11.77;;
72785;SDS011;60902;53.876;10.674;2022-12-18T01:02:34;16.17;;;11.57;;
72785;SDS011;60902;53.876;10.674;2022-12-18T01:02:44;16.40;;;11.32;;
72785;SDS011;60902;53.876;10.674;2022-12-18T01:02:56;16.27;;;11.55;;
72785;SDS011;60902;53.876;10.674;2022-12-18T01:03:07;16.65;;;11.82;;
72785;SDS011;60902;53.876;10.674;2022-12-18T01:03:22;16.10;;;11.90;;
72785;SDS011;60902;53.876;10.674;2022-12-18T01:03:33;14.95;;;11.27;;
72785;SDS011;60902;53.876;10.674;2022-12-18T01:03:44;14.32;;;10.95;;
72785;SDS011;60902;53.876;10.674;2022-12-18T01:03:56;15.65;;;11.02;;
72785;SDS011;60902;53.876;10.674;2022-12-18T01:04:11;16.23;;;10.93;;
72785;SDS011;60902;53.876;10.674;2022-12-18T01:04:22;15.75;;;11.27;;
72785;SDS011;60902;53.876;10.674;2022-12-18T01:04:34;15.82;;;11.45;;
72785;SDS011;60902;53.876;10.674;2022-12-18T01:04:45;17.42;;;11.77;;
72785;SDS011;60902;53.876;10.674;2022-12-18T01:04:56;16.93;;;11.73;;
72785;SDS011;60902;53.876;10.674;2022-12-18T01:05:07;16.83;;;12.07;;
72785;SDS011;60902;53.876;10.674;2022-12-18T01:05:19;15.20;;;11.70;;
72785;SDS011;60902;53.876;10.674;2022-12-18T01:05:30;14.98;;;11.45;;
72785;SDS011;60902;53.876;10.674;2022-12-18T01:05:41;14.87;;;11.37;;
72785;SDS011;60902;53.876;10.674;2022-12-18T01:05:52;14.88;;;11.15;;
72785;SDS011;60902;53.876;10.674;2022-12-18T01:06:05;14.63;;;11.10;;
72785;SDS011;60902;53.876;10.674;2022-12-18T01:06:19;14.90;;;11.35;;
72785;SDS011;60902;53.876;10.674;2022-12-18T01:06:30;14.82;;;11.20;;
72785;SDS011;60902;53.876;10.674;2022-12-18T01:06:41;14.88;;;11.02;;
72785;SDS011;60902;53.876;10.674;2022-12-18T01:06:51;15.32;;;11.07;;
72785;SDS011;60902;53.876;10.674;2022-12-18T01:07:02;14.63;;;10.83;;
72785;SDS011;60902;53.876;10.674;2022-12-18T01:07:13;15.25;;;12.05;;
72785;SDS011;60902;53.876;10.674;2022-12-18T01:07:24;15.18;;;12.43;;
72785;SDS011;60902;53.876;10.674;2022-12-18T01:07:36;15.63;;;12.48;;
72785;SDS011;60902;53.876;10.674;2022-12-18T01:07:47;15.02;;;11.10;;
72785;SDS011;60902;53.876;10.674;2022-12-18T01:07:58;14.77;;;11.00;;
72785;SDS011;60902;53.876;10.674;2022-12-18T01:08:09;14.98;;;11.00;;
72785;SDS011;60902;53.876;10.674;2022-12-18T01:08:20;15.52;;;11.40;;
72785;SDS011;60902;53.876;10.674;2022-12-18T01:08:31;15.88;;;12.13;;
72785;SDS011;60902;53.876;10.674;2022-12-18T01:08:42;16.48;;;12.32;;
72785;SDS011;60902;53.876;10.674;2022-12-18T01:08:53;15.55;;;11.75;;
72785;SDS011;60902;53.876;10.674;2022-12-18T01:09:05;14.52;;;10.82;;
72785;SDS011;60902;53.876;10.674;2022-12-18T01:09:16;15.07;;;11.25;;
72785;SDS011;60902;53.876;10.674;2022-12-18T01:09:27;15.73;;;11.52;;
72785;SDS011;60902;53.876;10.674;2022-12-18T01:09:38;16.48;;;11.60;;
72785;SDS011;60902;53.876;10.674;2022-12-18T01:09:49;16.17;;;11.30;;
72785;SDS011;60902;53.876;10.674;2022-12-18T01:10:00;16.30;;;11.88;;
72785;SDS011;60902;53.876;10.674;2022-12-18T01:10:11;15.32;;;11.52;;